createdAt,value
2019-05-03T00:02:33.652Z,32.63
2019-05-03T00:05:50.216Z,29.20
2019-05-03T00:08:33.339Z,29.57
2019-05-03T00:11:36.423Z,38.40
2019-05-03T00:14:28.367Z,30.80
2019-05-03T00:17:22.237Z,32.07
2019-05-03T00:23:45.688Z,31.67
2019-05-03T00:26:19.723Z,29.50
2019-05-03T00:28:52.982Z,28.13
2019-05-03T00:31:26.687Z,32.07
2019-05-03T00:34:22.259Z,37.00
2019-05-03T00:37:07.143Z,29.20
2019-05-03T00:40:16.392Z,29.93
2019-05-03T00:42:58.338Z,25.80
2019-05-03T00:45:31.616Z,32.73
2019-05-03T00:48:03.382Z,38.93
2019-05-03T00:50:36.002Z,32.40
2019-05-03T00:53:11.643Z,30.70
2019-05-03T00:55:44.790Z,23.17
2019-05-03T00:58:17.009Z,29.67
2019-05-03T01:00:52.432Z,29.20
2019-05-03T01:03:25.444Z,31.73
2019-05-03T01:05:59.545Z,27.90
2019-05-03T01:08:41.931Z,29.20
2019-05-03T01:11:22.201Z,27.00
2019-05-03T01:14:04.877Z,30.77
2019-05-03T01:16:42.721Z,31.80
2019-05-03T01:19:14.583Z,29.07
2019-05-03T01:21:51.474Z,31.37
2019-05-03T01:24:33.899Z,33.20
2019-05-03T01:27:18.387Z,29.87
2019-05-03T01:29:58.573Z,27.93
2019-05-03T01:32:52.364Z,31.43
2019-05-03T01:35:35.338Z,30.30
2019-05-03T01:38:31.891Z,33.90
2019-05-03T01:41:04.189Z,33.27
2019-05-03T01:43:36.140Z,33.67
2019-05-03T01:46:08.109Z,32.23
2019-05-03T01:48:58.660Z,35.47
2019-05-03T01:51:42.045Z,30.60
2019-05-03T01:54:13.952Z,28.57
2019-05-03T01:56:56.012Z,34.30
2019-05-03T01:59:19.429Z,32.07
2019-05-03T02:02:08.852Z,32.03
2019-05-03T02:04:49.058Z,34.00
2019-05-03T02:07:22.384Z,34.50
2019-05-03T02:09:54.183Z,33.40
2019-05-03T02:12:26.337Z,32.80
2019-05-03T02:14:58.300Z,36.20
2019-05-03T02:17:31.901Z,30.77
2019-05-03T02:20:03.658Z,31.53
2019-05-03T02:22:35.410Z,33.23
2019-05-03T02:25:07.422Z,30.83
2019-05-03T02:27:39.270Z,31.33
2019-05-03T02:30:14.301Z,28.90
2019-05-03T02:32:44.903Z,34.40
2019-05-03T02:35:16.649Z,33.13
2019-05-03T02:37:53.264Z,37.87
2019-05-03T02:40:25.672Z,30.60
2019-05-03T02:43:19.244Z,30.97
2019-05-03T02:46:07.893Z,31.30
2019-05-03T02:48:50.181Z,28.90
2019-05-03T02:51:22.016Z,31.30
2019-05-03T02:53:56.788Z,27.97
2019-05-03T02:56:27.634Z,28.37
2019-05-03T02:58:59.461Z,34.97
2019-05-03T03:01:31.720Z,26.80
2019-05-03T03:04:05.312Z,29.23
2019-05-03T03:06:40.353Z,31.80
2019-05-03T03:09:12.840Z,33.80
2019-05-03T03:11:48.076Z,29.53
2019-05-03T03:14:22.229Z,34.03
2019-05-03T03:16:56.180Z,29.57
2019-05-03T03:19:31.131Z,25.50
2019-05-03T03:22:07.413Z,27.77
2019-05-03T03:24:45.910Z,26.80
2019-05-03T03:27:25.597Z,24.73
2019-05-03T03:30:29.257Z,29.83
2019-05-03T03:33:08.749Z,33.77
2019-05-03T03:35:48.453Z,26.67
2019-05-03T03:38:20.540Z,27.07
2019-05-03T03:40:56.449Z,29.00
2019-05-03T03:43:28.887Z,26.60
2019-05-03T03:46:05.243Z,25.57
2019-05-03T03:48:39.378Z,29.33
2019-05-03T03:51:15.457Z,25.90
2019-05-03T03:53:50.989Z,31.20
2019-05-03T03:56:25.537Z,23.30
2019-05-03T03:58:59.187Z,20.07
2019-05-03T04:01:34.929Z,21.37
2019-05-03T04:04:07.820Z,19.87
2019-05-03T04:06:41.266Z,20.37
2019-05-03T04:09:15.888Z,22.40
2019-05-03T04:11:48.635Z,19.40
2019-05-03T04:14:46.958Z,18.90
2019-05-03T04:17:39.744Z,17.60
2019-05-03T04:20:16.277Z,12.00
2019-05-03T04:22:49.282Z,14.73
2019-05-03T04:25:25.875Z,11.00
2019-05-03T04:27:58.550Z,15.33
2019-05-03T04:30:31.849Z,19.53
2019-05-03T04:33:08.306Z,14.17
2019-05-03T04:35:41.619Z,10.50
2019-05-03T04:38:16.252Z,12.93
2019-05-03T04:40:49.874Z,14.07
2019-05-03T04:43:26.132Z,22.53
2019-05-03T04:46:08.363Z,24.10
2019-05-03T04:48:41.875Z,13.40
2019-05-03T04:51:16.584Z,9.97
2019-05-03T04:54:06.520Z,13.67
2019-05-03T04:56:39.045Z,12.30
2019-05-03T04:59:10.811Z,11.00
2019-05-03T05:01:42.572Z,11.70
2019-05-03T05:04:16.066Z,15.13
2019-05-03T05:06:47.979Z,11.10
2019-05-03T05:09:20.067Z,14.93
2019-05-03T05:11:54.879Z,15.30
2019-05-03T05:14:26.445Z,9.70
2019-05-03T05:16:58.231Z,11.50
2019-05-03T05:19:54.946Z,10.67
2019-05-03T05:22:29.585Z,14.23
2019-05-03T05:25:01.646Z,11.73
2019-05-03T05:27:49.512Z,11.67
2019-05-03T05:30:16.469Z,12.13
2019-05-03T05:32:48.441Z,11.17
2019-05-03T05:35:20.207Z,14.40
2019-05-03T05:37:51.992Z,12.80
2019-05-03T05:40:25.359Z,9.30
2019-05-03T05:42:57.077Z,13.90
2019-05-03T05:45:28.849Z,7.60
2019-05-03T05:48:07.461Z,7.33
2019-05-03T05:50:46.255Z,7.43
2019-05-03T05:53:17.937Z,8.10
2019-05-03T05:56:09.587Z,8.83
2019-05-03T05:58:49.038Z,7.08
2019-05-03T06:01:35.342Z,9.90
2019-05-03T06:04:10.014Z,6.70
2019-05-03T06:07:02.242Z,11.47
2019-05-03T06:09:56.828Z,13.90
2019-05-03T06:12:41.750Z,9.97
2019-05-03T06:15:34.510Z,6.30
2019-05-03T06:18:12.034Z,10.13
2019-05-03T06:20:54.376Z,5.85
2019-05-03T06:23:30.874Z,7.87
2019-05-03T06:26:04.970Z,8.57
2019-05-03T06:28:36.840Z,7.80
2019-05-03T06:31:21.124Z,6.57
2019-05-03T06:33:53.011Z,5.40
2019-05-03T06:36:24.676Z,7.23
2019-05-03T06:38:56.345Z,6.90
2019-05-03T06:41:28.560Z,5.60
2019-05-03T06:44:00.330Z,6.20
2019-05-03T06:46:46.221Z,10.53
2019-05-03T06:49:17.893Z,9.13
2019-05-03T06:51:50.069Z,7.17
2019-05-03T06:54:26.897Z,6.90
2019-05-03T06:56:55.574Z,9.50
2019-05-03T06:59:36.555Z,5.03
2019-05-03T07:02:28.404Z,7.50
2019-05-03T07:04:59.971Z,7.87
2019-05-03T07:07:38.322Z,8.77
2019-05-03T07:10:35.320Z,6.30
2019-05-03T07:13:09.011Z,9.30
2019-05-03T07:15:40.762Z,11.20
2019-05-03T07:18:13.106Z,8.90
2019-05-03T07:20:49.509Z,9.50
2019-05-03T07:23:21.660Z,7.07
2019-05-03T07:25:55.099Z,9.60
2019-05-03T07:28:26.891Z,7.23
2019-05-03T07:30:58.563Z,9.05
2019-05-03T07:33:34.764Z,7.37
2019-05-03T07:36:06.726Z,10.23
2019-05-03T07:38:38.453Z,9.87
2019-05-03T07:41:10.231Z,18.87
2019-05-03T07:43:42.608Z,6.60
2019-05-03T07:46:14.913Z,6.30
2019-05-03T07:48:47.300Z,8.87
2019-05-03T07:51:19.110Z,8.13
2019-05-03T07:53:50.868Z,8.70
2019-05-03T07:56:25.350Z,6.97
2019-05-03T07:59:03.079Z,6.22
2019-05-03T08:01:36.008Z,9.77
2019-05-03T08:04:08.600Z,8.50
2019-05-03T08:06:40.625Z,9.00
2019-05-03T08:09:12.507Z,7.50
2019-05-03T08:11:45.045Z,9.10
2019-05-03T08:14:18.298Z,5.77
2019-05-03T08:16:50.114Z,8.17
2019-05-03T08:19:24.473Z,7.20
2019-05-03T08:21:56.676Z,7.50
2019-05-03T08:24:28.936Z,6.73
2019-05-03T08:27:00.822Z,6.83
2019-05-03T08:29:35.016Z,6.43
2019-05-03T08:32:28.659Z,6.43
2019-05-03T08:35:35.654Z,6.80
2019-05-03T08:38:08.189Z,7.00
2019-05-03T08:40:45.583Z,9.63
2019-05-03T08:43:17.341Z,9.23
2019-05-03T08:45:49.109Z,8.33
2019-05-03T08:48:20.826Z,7.80
2019-05-03T08:50:55.299Z,6.45
2019-05-03T08:53:26.670Z,9.00
2019-05-03T08:55:58.681Z,6.40
2019-05-03T08:58:30.790Z,7.17
2019-05-03T09:01:02.634Z,7.37
2019-05-03T09:03:36.354Z,8.80
2019-05-03T09:06:08.375Z,6.73
2019-05-03T09:08:40.252Z,6.45
2019-05-03T09:11:15.530Z,6.70
2019-05-03T09:13:51.071Z,10.10
2019-05-03T09:16:25.027Z,7.20
2019-05-03T09:18:56.327Z,6.87
2019-05-03T09:21:29.882Z,7.80
2019-05-03T09:24:01.659Z,7.37
2019-05-03T09:26:34.883Z,6.20
2019-05-03T09:29:06.852Z,4.80
2019-05-03T09:31:38.741Z,7.73
2019-05-03T09:34:10.628Z,6.00
2019-05-03T09:36:44.847Z,6.77
2019-05-03T09:39:16.778Z,7.73
2019-05-03T09:41:49.449Z,10.90
2019-05-03T09:44:21.235Z,4.50
2019-05-03T09:46:55.036Z,5.40
2019-05-03T09:49:26.828Z,6.67
2019-05-03T09:51:59.517Z,7.78
2019-05-03T09:54:46.205Z,6.03
2019-05-03T09:57:18.048Z,6.30
2019-05-03T09:59:58.954Z,6.60
2019-05-03T10:02:24.643Z,5.50
2019-05-03T10:04:59.011Z,7.17
2019-05-03T10:07:31.894Z,6.87
2019-05-03T10:10:05.740Z,6.95
2019-05-03T10:12:37.593Z,8.80
2019-05-03T10:15:10.313Z,11.20
2019-05-03T10:17:47.870Z,5.83
2019-05-03T10:20:21.053Z,4.67
2019-05-03T10:22:54.521Z,4.62
2019-05-03T10:25:26.182Z,6.17
2019-05-03T10:27:58.006Z,4.50
2019-05-03T10:30:29.621Z,4.50
2019-05-03T10:33:15.678Z,5.45
2019-05-03T10:35:47.670Z,5.65
2019-05-03T10:38:20.101Z,4.67
2019-05-03T10:40:51.775Z,4.65
2019-05-03T10:43:24.813Z,3.63
2019-05-03T10:45:56.688Z,4.97
2019-05-03T10:48:28.448Z,8.40
2019-05-03T10:51:00.315Z,5.60
2019-05-03T10:53:37.683Z,4.20
2019-05-03T10:56:23.234Z,3.33
2019-05-03T10:58:59.457Z,6.65
2019-05-03T11:01:38.831Z,6.23
2019-05-03T11:04:12.134Z,3.80
2019-05-03T11:06:45.792Z,3.60
2019-05-03T11:09:18.178Z,4.80
2019-05-03T11:11:50.072Z,3.43
2019-05-03T11:14:21.800Z,5.20
2019-05-03T11:16:55.267Z,2.83
2019-05-03T11:19:27.396Z,6.00
2019-05-03T11:21:59.382Z,6.10
2019-05-03T11:24:31.791Z,8.50
2019-05-03T11:27:06.857Z,7.20
2019-05-03T11:29:38.667Z,4.27
2019-05-03T11:32:20.563Z,7.07
2019-05-03T11:35:17.421Z,4.92
2019-05-03T11:37:56.226Z,5.33
2019-05-03T11:40:28.591Z,3.93
2019-05-03T11:43:04.519Z,3.50
2019-05-03T11:45:36.224Z,2.87
2019-05-03T11:48:08.248Z,3.20
2019-05-03T11:50:40.417Z,4.43
2019-05-03T11:53:14.510Z,4.63
2019-05-03T12:01:13.091Z,2.85
2019-05-03T12:03:52.599Z,4.63
2019-05-03T12:06:24.909Z,3.17
2019-05-03T12:08:56.999Z,3.80
2019-05-03T12:11:31.523Z,3.07
2019-05-03T12:14:15.191Z,2.62
2019-05-03T12:17:14.369Z,3.93
2019-05-03T12:19:31.534Z,3.27
2019-05-03T12:22:03.669Z,3.75
2019-05-03T12:24:37.426Z,3.17
2019-05-03T12:27:10.281Z,4.20
2019-05-03T12:29:42.062Z,4.80
2019-05-03T12:32:14.453Z,4.27
2019-05-03T12:34:46.245Z,3.37
2019-05-03T12:37:18.389Z,3.60
2019-05-03T12:39:50.486Z,4.17
2019-05-03T12:42:23.020Z,4.87
2019-05-03T12:44:55.241Z,4.47
2019-05-03T12:47:27.180Z,3.00
2019-05-03T12:49:59.179Z,3.00
2019-05-03T12:52:31.492Z,4.70
2019-05-03T12:55:04.624Z,4.70
2019-05-03T12:57:37.269Z,3.15
2019-05-03T13:00:30.285Z,4.20
2019-05-03T13:03:12.205Z,3.22
2019-05-03T13:05:44.938Z,3.33
2019-05-03T13:08:50.911Z,5.57
2019-05-03T13:11:22.767Z,7.30
2019-05-03T13:13:56.674Z,4.58
2019-05-03T13:16:28.374Z,5.17
2019-05-03T13:19:00.211Z,2.90
2019-05-03T13:21:32.161Z,7.00
2019-05-03T13:24:05.517Z,4.37
2019-05-03T13:26:37.568Z,3.47
2019-05-03T13:29:10.083Z,3.70
2019-05-03T13:31:54.858Z,3.30
2019-05-03T13:34:16.033Z,3.63
2019-05-03T13:36:48.159Z,4.70
2019-05-03T13:39:19.973Z,5.17
2019-05-03T13:41:51.707Z,5.30
2019-05-03T13:44:24.773Z,3.20
2019-05-03T13:46:56.787Z,5.03
2019-05-03T13:49:29.557Z,6.93
2019-05-03T13:52:01.356Z,5.40
2019-05-03T13:54:35.006Z,3.27
2019-05-03T13:57:06.561Z,3.33
2019-05-03T13:59:38.490Z,3.17
2019-05-03T14:02:18.259Z,8.70
2019-05-03T14:04:52.055Z,4.50
2019-05-03T14:07:18.091Z,5.13
2019-05-03T14:09:50.072Z,3.20
2019-05-03T14:12:22.029Z,4.90
2019-05-03T14:14:56.532Z,2.90
2019-05-03T14:17:29.603Z,3.90
2019-05-03T14:20:11.801Z,2.60
2019-05-03T14:22:45.030Z,9.20
2019-05-03T14:25:17.163Z,3.90
2019-05-03T14:27:48.826Z,4.30
2019-05-03T14:30:20.793Z,3.52
2019-05-03T14:32:52.720Z,2.70
2019-05-03T14:35:25.103Z,3.50
2019-05-03T14:37:57.492Z,1.92
2019-05-03T14:40:29.331Z,2.80
2019-05-03T14:43:01.261Z,3.83
2019-05-03T14:45:35.597Z,2.07
2019-05-03T14:48:07.882Z,9.60
2019-05-03T14:50:39.841Z,1.50
2019-05-03T14:53:12.012Z,2.90
2019-05-03T14:55:49.540Z,1.50
2019-05-03T14:58:40.233Z,1.60
2019-05-03T15:01:20.481Z,2.53
2019-05-03T15:03:52.191Z,3.22
2019-05-03T15:06:24.939Z,2.57
2019-05-03T15:08:57.459Z,3.65
2019-05-03T15:11:29.602Z,4.00
2019-05-03T15:14:01.331Z,2.80
2019-05-03T15:16:34.414Z,3.07
2019-05-03T15:19:06.398Z,2.33
2019-05-03T15:21:38.146Z,6.27
2019-05-03T15:24:10.647Z,4.87
2019-05-03T15:26:44.627Z,3.53
2019-05-03T15:29:16.333Z,3.70
2019-05-03T15:31:48.158Z,2.73
2019-05-03T15:34:20.019Z,6.40
2019-05-03T15:36:51.762Z,4.65
2019-05-03T15:39:23.717Z,3.10
2019-05-03T15:41:55.427Z,2.80
2019-05-03T15:44:35.850Z,2.30
2019-05-03T15:47:26.426Z,1.93
2019-05-03T15:49:58.144Z,2.87
2019-05-03T15:52:29.882Z,2.70
2019-05-03T15:55:04.586Z,3.30
2019-05-03T15:57:36.554Z,3.30
2019-05-03T16:00:11.007Z,3.90
2019-05-03T16:02:43.052Z,3.10
2019-05-03T16:05:15.575Z,2.37
2019-05-03T16:07:47.549Z,2.53
2019-05-03T16:10:19.334Z,2.10
2019-05-03T16:12:51.340Z,2.85
2019-05-03T16:15:24.637Z,4.10
2019-05-03T16:17:56.527Z,2.43
2019-05-03T16:20:28.343Z,2.50
2019-05-03T16:23:00.073Z,3.47
2019-05-03T16:25:32.718Z,2.27
2019-05-03T16:28:09.951Z,2.75
2019-05-03T16:30:45.599Z,4.17
2019-05-03T16:33:27.134Z,2.30
2019-05-03T16:35:52.433Z,5.83
2019-05-03T16:38:26.279Z,4.20
2019-05-03T16:40:59.691Z,4.67
2019-05-03T16:43:34.770Z,4.17
2019-05-03T16:46:07.064Z,2.60
2019-05-03T16:48:38.953Z,6.45
2019-05-03T16:51:10.941Z,10.13
2019-05-03T16:53:44.480Z,2.70
2019-05-03T16:56:17.343Z,5.50
2019-05-03T16:58:50.108Z,4.20
2019-05-03T17:01:24.454Z,3.30
2019-05-03T17:04:16.758Z,3.43
2019-05-03T17:06:58.742Z,4.63
2019-05-03T17:09:50.094Z,3.93
2019-05-03T17:12:25.672Z,3.83
2019-05-03T17:14:58.272Z,2.73
2019-05-03T17:17:30.750Z,3.40
2019-05-03T17:20:03.077Z,2.87
2019-05-03T17:22:34.932Z,7.10
2019-05-03T17:25:08.132Z,4.27
2019-05-03T17:27:40.063Z,5.43
2019-05-03T17:30:12.090Z,4.90
2019-05-03T17:32:44.735Z,4.00
2019-05-03T17:35:16.482Z,6.40
2019-05-03T17:37:48.302Z,3.02
2019-05-03T17:40:31.582Z,4.07
2019-05-03T17:43:14.655Z,4.90
2019-05-03T17:45:49.624Z,3.23
2019-05-03T17:48:23.109Z,5.13
2019-05-03T17:50:55.174Z,3.23
2019-05-03T17:53:49.422Z,4.10
2019-05-03T17:56:29.450Z,5.07
2019-05-03T17:59:11.612Z,3.90
2019-05-03T18:02:00.899Z,3.00
2019-05-03T18:04:50.559Z,6.73
2019-05-03T18:07:41.428Z,6.55
2019-05-03T18:10:15.217Z,4.43
2019-05-03T18:12:50.242Z,3.47
2019-05-03T18:15:22.108Z,4.33
2019-05-03T18:17:54.914Z,3.80
2019-05-03T18:20:27.161Z,4.90
2019-05-03T18:22:59.202Z,4.77
2019-05-03T18:25:31.614Z,6.73
2019-05-03T18:28:03.499Z,3.33
2019-05-03T18:30:35.353Z,4.70
2019-05-03T18:33:07.305Z,3.10
2019-05-03T18:35:43.581Z,5.10
2019-05-03T18:38:15.549Z,6.30
2019-05-03T18:40:47.715Z,4.57
2019-05-03T18:43:35.735Z,6.47
2019-05-03T18:46:28.942Z,3.17
2019-05-03T18:49:01.055Z,7.07
2019-05-03T18:51:34.405Z,4.27
2019-05-03T18:54:07.389Z,4.20
2019-05-03T18:56:41.006Z,4.10
2019-05-03T18:59:14.637Z,4.07
2019-05-03T19:01:46.549Z,6.33
2019-05-03T19:04:40.248Z,12.73
2019-05-03T19:07:23.686Z,4.97
2019-05-03T19:13:35.719Z,3.63
2019-05-03T19:16:45.514Z,4.10
2019-05-03T19:19:19.305Z,5.97
2019-05-03T19:21:51.772Z,3.50
2019-05-03T19:24:24.548Z,4.70
2019-05-03T19:26:56.779Z,5.63
2019-05-03T19:29:28.785Z,6.47
2019-05-03T19:32:02.196Z,5.73
2019-05-03T19:34:46.867Z,5.03
2019-05-03T19:37:07.754Z,4.67
2019-05-03T19:39:39.650Z,5.57
2019-05-03T19:42:11.554Z,5.97
2019-05-03T19:44:45.396Z,5.07
2019-05-03T19:47:17.455Z,5.13
2019-05-03T19:49:49.665Z,5.83
2019-05-03T19:52:25.491Z,4.23
2019-05-03T19:54:57.525Z,6.20
2019-05-03T19:57:35.031Z,4.30
2019-05-03T20:00:08.636Z,4.60
2019-05-03T20:02:47.306Z,4.27
2019-05-03T20:05:38.445Z,3.73
2019-05-03T20:08:35.340Z,3.90
2019-05-03T20:11:19.788Z,4.90
2019-05-03T20:13:51.952Z,7.10
2019-05-03T20:16:23.874Z,4.30
2019-05-03T20:18:55.724Z,7.10
2019-05-03T20:21:27.774Z,5.43
2019-05-03T20:23:59.729Z,4.33
2019-05-03T20:26:34.603Z,6.90
2019-05-03T20:29:05.670Z,8.55
2019-05-03T20:31:37.568Z,10.60
2019-05-03T20:34:09.504Z,7.60
2019-05-03T20:36:41.485Z,6.57
2019-05-03T20:39:14.821Z,6.20
2019-05-03T20:41:46.941Z,8.30
2019-05-03T20:44:40.561Z,6.60
2019-05-03T20:47:31.385Z,4.60
2019-05-03T20:50:15.650Z,5.80
2019-05-03T20:52:47.850Z,5.77
2019-05-03T20:55:19.578Z,8.03
2019-05-03T20:57:51.727Z,6.30
2019-05-03T21:00:25.717Z,5.60
2019-05-03T21:02:58.157Z,5.70
2019-05-03T21:05:34.318Z,7.73
2019-05-03T21:08:05.571Z,5.37
2019-05-03T21:10:37.553Z,4.87
2019-05-03T21:13:09.604Z,4.60
2019-05-03T21:15:47.763Z,5.13
2019-05-03T21:18:57.094Z,3.97
2019-05-03T21:21:44.533Z,4.13
2019-05-03T21:24:35.584Z,4.20
2019-05-03T21:27:07.941Z,4.13
2019-05-03T21:29:54.873Z,4.17
2019-05-03T21:32:32.282Z,6.97
2019-05-03T21:35:10.226Z,4.60
2019-05-03T21:37:42.298Z,4.57
2019-05-03T21:40:15.597Z,4.53
2019-05-03T21:42:47.476Z,4.20
2019-05-03T21:45:24.669Z,4.57
2019-05-03T21:48:15.075Z,4.20
2019-05-03T21:50:46.895Z,5.00
2019-05-03T21:53:18.729Z,5.30
2019-05-03T21:55:51.997Z,4.83
2019-05-03T21:58:24.965Z,5.80
2019-05-03T22:01:01.792Z,5.40
2019-05-03T22:03:35.348Z,4.33
2019-05-03T22:06:07.292Z,4.10
2019-05-03T22:08:39.069Z,6.70
2019-05-03T22:11:11.053Z,4.70
2019-05-03T22:13:45.328Z,7.37
2019-05-03T22:16:58.362Z,7.80
2019-05-03T22:19:46.415Z,3.70
2019-05-03T22:22:36.501Z,2.80
2019-05-03T22:25:09.131Z,4.40
2019-05-03T22:27:42.346Z,4.03
2019-05-03T22:30:29.339Z,3.03
2019-05-03T22:33:14.498Z,5.63
2019-05-03T22:36:08.295Z,4.20
2019-05-03T22:38:48.764Z,5.60
2019-05-03T22:41:42.562Z,6.50
2019-05-03T22:44:17.105Z,5.58
2019-05-03T22:47:11.363Z,5.70
2019-05-03T22:49:50.988Z,3.80
2019-05-03T22:52:22.735Z,6.05
2019-05-03T22:54:55.468Z,3.90
2019-05-03T22:57:27.390Z,5.28
2019-05-03T22:59:59.190Z,5.43
2019-05-03T23:02:31.661Z,5.13
2019-05-03T23:05:04.669Z,6.00
2019-05-03T23:07:37.501Z,6.77
2019-05-03T23:10:09.623Z,7.20
2019-05-03T23:12:41.340Z,9.83
2019-05-03T23:15:15.087Z,6.07
2019-05-03T23:17:47.102Z,6.10
2019-05-03T23:20:28.439Z,5.15
2019-05-03T23:23:00.156Z,4.83
2019-05-03T23:25:31.913Z,5.63
2019-05-03T23:28:04.302Z,3.55
2019-05-03T23:30:35.988Z,4.30
2019-05-03T23:33:07.831Z,5.37
2019-05-03T23:35:39.498Z,6.77
2019-05-03T23:38:11.218Z,7.50
2019-05-03T23:40:44.768Z,6.33
2019-05-03T23:43:17.375Z,7.80
2019-05-03T23:45:49.392Z,6.43
2019-05-03T23:48:21.483Z,5.10
2019-05-03T23:50:55.146Z,7.03
2019-05-03T23:53:26.951Z,5.07
2019-05-03T23:56:07.548Z,4.50
2019-05-03T23:58:39.284Z,8.30
